sensor_id;sensor_type;location;lat;lon;timestamp;temperature;humidity
2441;DHT22;1231;53.988;9.470;2023-05-07T00:00:47;10.80;85.60
2441;DHT22;1231;53.988;9.470;2023-05-07T00:03:38;10.90;85.50
2441;DHT22;1231;53.988;9.470;2023-05-07T00:06:30;10.90;85.40
2441;DHT22;1231;53.988;9.470;2023-05-07T00:09:21;10.90;85.30
2441;DHT22;1231;53.988;9.470;2023-05-07T00:12:12;10.90;85.20
2441;DHT22;1231;53.988;9.470;2023-05-07T00:15:03;10.90;85.10
2441;DHT22;1231;53.988;9.470;2023-05-07T00:17:55;10.90;84.90
2441;DHT22;1231;53.988;9.470;2023-05-07T00:20:46;10.90;84.70
2441;DHT22;1231;53.988;9.470;2023-05-07T00:23:37;10.90;84.60
2441;DHT22;1231;53.988;9.470;2023-05-07T00:26:28;10.90;84.60
2441;DHT22;1231;53.988;9.470;2023-05-07T00:29:19;10.90;84.50
2441;DHT22;1231;53.988;9.470;2023-05-07T00:32:10;11.00;84.50
2441;DHT22;1231;53.988;9.470;2023-05-07T00:35:01;11.00;84.30
2441;DHT22;1231;53.988;9.470;2023-05-07T00:37:51;11.00;84.20
2441;DHT22;1231;53.988;9.470;2023-05-07T00:40:42;10.90;84.10
2441;DHT22;1231;53.988;9.470;2023-05-07T00:43:33;10.90;83.60
2441;DHT22;1231;53.988;9.470;2023-05-07T00:46:24;10.80;83.30
2441;DHT22;1231;53.988;9.470;2023-05-07T00:49:16;10.90;83.30
2441;DHT22;1231;53.988;9.470;2023-05-07T00:52:11;10.90;83.20
2441;DHT22;1231;53.988;9.470;2023-05-07T00:55:05;10.90;83.00
2441;DHT22;1231;53.988;9.470;2023-05-07T00:57:56;10.90;83.10
2441;DHT22;1231;53.988;9.470;2023-05-07T01:00:47;10.90;82.90
2441;DHT22;1231;53.988;9.470;2023-05-07T01:03:38;10.90;82.90
2441;DHT22;1231;53.988;9.470;2023-05-07T01:06:29;10.90;82.80
2441;DHT22;1231;53.988;9.470;2023-05-07T01:09:26;10.90;82.70
2441;DHT22;1231;53.988;9.470;2023-05-07T01:12:18;10.90;82.60
2441;DHT22;1231;53.988;9.470;2023-05-07T01:15:21;10.90;82.50
2441;DHT22;1231;53.988;9.470;2023-05-07T01:18:14;10.90;82.40
2441;DHT22;1231;53.988;9.470;2023-05-07T01:21:06;10.90;82.30
2441;DHT22;1231;53.988;9.470;2023-05-07T01:23:59;10.90;82.30
2441;DHT22;1231;53.988;9.470;2023-05-07T01:26:50;10.90;82.30
2441;DHT22;1231;53.988;9.470;2023-05-07T01:29:41;10.90;82.30
2441;DHT22;1231;53.988;9.470;2023-05-07T01:32:37;10.90;82.20
2441;DHT22;1231;53.988;9.470;2023-05-07T01:35:34;10.80;82.20
2441;DHT22;1231;53.988;9.470;2023-05-07T01:38:27;10.90;82.20
2441;DHT22;1231;53.988;9.470;2023-05-07T01:41:19;10.80;82.20
2441;DHT22;1231;53.988;9.470;2023-05-07T01:44:12;10.80;82.20
2441;DHT22;1231;53.988;9.470;2023-05-07T01:47:04;10.80;82.20
2441;DHT22;1231;53.988;9.470;2023-05-07T01:49:56;10.80;82.20
2441;DHT22;1231;53.988;9.470;2023-05-07T01:52:47;10.80;82.20
2441;DHT22;1231;53.988;9.470;2023-05-07T01:55:40;10.80;82.20
2441;DHT22;1231;53.988;9.470;2023-05-07T01:58:31;10.90;82.20
2441;DHT22;1231;53.988;9.470;2023-05-07T02:01:22;10.80;82.10
2441;DHT22;1231;53.988;9.470;2023-05-07T02:04:13;10.80;82.20
2441;DHT22;1231;53.988;9.470;2023-05-07T02:07:04;10.80;82.10
2441;DHT22;1231;53.988;9.470;2023-05-07T02:10:02;10.80;82.10
2441;DHT22;1231;53.988;9.470;2023-05-07T02:12:53;10.80;82.10
2441;DHT22;1231;53.988;9.470;2023-05-07T02:15:52;10.80;82.10
2441;DHT22;1231;53.988;9.470;2023-05-07T02:18:44;10.80;82.10
2441;DHT22;1231;53.988;9.470;2023-05-07T02:21:35;10.80;82.10
2441;DHT22;1231;53.988;9.470;2023-05-07T02:24:26;10.80;82.00
2441;DHT22;1231;53.988;9.470;2023-05-07T02:27:17;10.80;82.10
2441;DHT22;1231;53.988;9.470;2023-05-07T02:30:08;10.80;82.10
2441;DHT22;1231;53.988;9.470;2023-05-07T02:32:59;10.80;82.00
2441;DHT22;1231;53.988;9.470;2023-05-07T02:35:50;10.80;81.90
2441;DHT22;1231;53.988;9.470;2023-05-07T02:38:42;10.90;81.90
2441;DHT22;1231;53.988;9.470;2023-05-07T02:41:33;10.90;81.90
2441;DHT22;1231;53.988;9.470;2023-05-07T02:44:24;10.90;81.90
2441;DHT22;1231;53.988;9.470;2023-05-07T02:47:15;10.90;81.80
2441;DHT22;1231;53.988;9.470;2023-05-07T02:50:07;10.90;81.80
2441;DHT22;1231;53.988;9.470;2023-05-07T02:52:58;10.90;81.70
2441;DHT22;1231;53.988;9.470;2023-05-07T02:55:49;10.90;81.80
2441;DHT22;1231;53.988;9.470;2023-05-07T02:58:40;10.80;81.80
2441;DHT22;1231;53.988;9.470;2023-05-07T03:01:32;10.90;81.80
2441;DHT22;1231;53.988;9.470;2023-05-07T03:04:23;10.90;81.90
2441;DHT22;1231;53.988;9.470;2023-05-07T03:07:14;10.90;81.90
2441;DHT22;1231;53.988;9.470;2023-05-07T03:10:05;10.90;81.90
2441;DHT22;1231;53.988;9.470;2023-05-07T03:13:05;10.90;82.00
2441;DHT22;1231;53.988;9.470;2023-05-07T03:15:56;10.90;82.00
2441;DHT22;1231;53.988;9.470;2023-05-07T03:18:46;10.90;82.10
2441;DHT22;1231;53.988;9.470;2023-05-07T03:21:37;10.80;82.20
2441;DHT22;1231;53.988;9.470;2023-05-07T03:24:28;10.80;82.30
2441;DHT22;1231;53.988;9.470;2023-05-07T03:27:19;10.80;82.30
2441;DHT22;1231;53.988;9.470;2023-05-07T03:30:12;10.80;82.30
2441;DHT22;1231;53.988;9.470;2023-05-07T03:33:03;10.80;82.30
2441;DHT22;1231;53.988;9.470;2023-05-07T03:35:54;10.70;82.30
2441;DHT22;1231;53.988;9.470;2023-05-07T03:38:45;10.70;82.10
2441;DHT22;1231;53.988;9.470;2023-05-07T03:41:36;10.70;82.20
2441;DHT22;1231;53.988;9.470;2023-05-07T03:44:27;10.60;82.10
2441;DHT22;1231;53.988;9.470;2023-05-07T03:47:17;10.60;82.10
2441;DHT22;1231;53.988;9.470;2023-05-07T03:50:09;10.60;82.10
2441;DHT22;1231;53.988;9.470;2023-05-07T03:53:01;10.70;82.10
2441;DHT22;1231;53.988;9.470;2023-05-07T03:55:52;10.70;82.10
2441;DHT22;1231;53.988;9.470;2023-05-07T03:58:42;10.70;82.20
2441;DHT22;1231;53.988;9.470;2023-05-07T04:01:33;10.70;82.20
2441;DHT22;1231;53.988;9.470;2023-05-07T04:04:24;10.70;82.20
2441;DHT22;1231;53.988;9.470;2023-05-07T04:07:15;10.70;82.20
2441;DHT22;1231;53.988;9.470;2023-05-07T04:10:07;10.70;82.10
2441;DHT22;1231;53.988;9.470;2023-05-07T04:12:57;10.70;82.10
2441;DHT22;1231;53.988;9.470;2023-05-07T04:15:49;10.70;82.10
2441;DHT22;1231;53.988;9.470;2023-05-07T04:18:39;10.70;82.10
2441;DHT22;1231;53.988;9.470;2023-05-07T04:21:30;10.70;82.00
2441;DHT22;1231;53.988;9.470;2023-05-07T04:24:23;10.70;82.00
2441;DHT22;1231;53.988;9.470;2023-05-07T04:27:13;10.70;82.00
2441;DHT22;1231;53.988;9.470;2023-05-07T04:30:05;10.70;82.00
2441;DHT22;1231;53.988;9.470;2023-05-07T04:32:57;10.70;82.00
2441;DHT22;1231;53.988;9.470;2023-05-07T04:35:48;10.70;82.00
2441;DHT22;1231;53.988;9.470;2023-05-07T04:38:39;10.80;82.00
2441;DHT22;1231;53.988;9.470;2023-05-07T04:41:30;10.80;81.90
2441;DHT22;1231;53.988;9.470;2023-05-07T04:44:21;10.80;81.90
2441;DHT22;1231;53.988;9.470;2023-05-07T04:47:12;10.80;81.90
2441;DHT22;1231;53.988;9.470;2023-05-07T04:50:03;10.80;81.80
2441;DHT22;1231;53.988;9.470;2023-05-07T04:52:54;10.80;81.80
2441;DHT22;1231;53.988;9.470;2023-05-07T04:55:45;10.90;81.80
2441;DHT22;1231;53.988;9.470;2023-05-07T04:58:36;10.90;81.60
2441;DHT22;1231;53.988;9.470;2023-05-07T05:01:27;10.90;81.70
2441;DHT22;1231;53.988;9.470;2023-05-07T05:04:19;10.90;81.20
2441;DHT22;1231;53.988;9.470;2023-05-07T05:07:10;10.90;81.30
2441;DHT22;1231;53.988;9.470;2023-05-07T05:10:02;10.90;81.10
2441;DHT22;1231;53.988;9.470;2023-05-07T05:12:53;10.90;80.90
2441;DHT22;1231;53.988;9.470;2023-05-07T05:15:44;10.90;80.90
2441;DHT22;1231;53.988;9.470;2023-05-07T05:18:36;11.00;80.60
2441;DHT22;1231;53.988;9.470;2023-05-07T05:21:27;11.00;80.40
2441;DHT22;1231;53.988;9.470;2023-05-07T05:24:18;11.00;80.40
2441;DHT22;1231;53.988;9.470;2023-05-07T05:27:09;11.00;80.20
2441;DHT22;1231;53.988;9.470;2023-05-07T05:30:00;11.00;80.10
2441;DHT22;1231;53.988;9.470;2023-05-07T05:32:50;11.10;80.00
2441;DHT22;1231;53.988;9.470;2023-05-07T05:35:42;11.10;79.80
2441;DHT22;1231;53.988;9.470;2023-05-07T05:38:33;11.10;79.80
2441;DHT22;1231;53.988;9.470;2023-05-07T05:41:23;11.10;79.70
2441;DHT22;1231;53.988;9.470;2023-05-07T05:44:15;11.10;79.70
2441;DHT22;1231;53.988;9.470;2023-05-07T05:47:06;11.10;79.40
2441;DHT22;1231;53.988;9.470;2023-05-07T05:49:57;11.20;79.50
2441;DHT22;1231;53.988;9.470;2023-05-07T05:52:48;11.20;79.40
2441;DHT22;1231;53.988;9.470;2023-05-07T05:55:39;11.20;79.30
2441;DHT22;1231;53.988;9.470;2023-05-07T05:58:30;11.30;79.40
2441;DHT22;1231;53.988;9.470;2023-05-07T06:01:22;11.30;79.30
2441;DHT22;1231;53.988;9.470;2023-05-07T06:04:12;11.30;79.20
2441;DHT22;1231;53.988;9.470;2023-05-07T06:07:03;11.30;79.10
2441;DHT22;1231;53.988;9.470;2023-05-07T06:09:54;11.40;79.00
2441;DHT22;1231;53.988;9.470;2023-05-07T06:12:46;11.40;79.00
2441;DHT22;1231;53.988;9.470;2023-05-07T06:15:37;11.50;79.10
2441;DHT22;1231;53.988;9.470;2023-05-07T06:18:27;11.50;79.10
2441;DHT22;1231;53.988;9.470;2023-05-07T06:21:18;11.60;79.00
2441;DHT22;1231;53.988;9.470;2023-05-07T06:24:09;11.60;78.90
2441;DHT22;1231;53.988;9.470;2023-05-07T06:27:00;11.60;78.70
2441;DHT22;1231;53.988;9.470;2023-05-07T06:29:51;11.60;78.70
2441;DHT22;1231;53.988;9.470;2023-05-07T06:32:42;11.60;78.70
2441;DHT22;1231;53.988;9.470;2023-05-07T06:35:33;11.70;78.40
2441;DHT22;1231;53.988;9.470;2023-05-07T06:38:24;11.70;78.50
2441;DHT22;1231;53.988;9.470;2023-05-07T06:41:15;11.70;78.50
2441;DHT22;1231;53.988;9.470;2023-05-07T06:44:07;11.80;78.40
2441;DHT22;1231;53.988;9.470;2023-05-07T06:46:58;11.80;78.10
2441;DHT22;1231;53.988;9.470;2023-05-07T06:49:49;11.80;77.70
2441;DHT22;1231;53.988;9.470;2023-05-07T06:52:40;11.80;77.90
2441;DHT22;1231;53.988;9.470;2023-05-07T06:55:31;11.90;78.00
2441;DHT22;1231;53.988;9.470;2023-05-07T06:58:22;11.90;77.40
2441;DHT22;1231;53.988;9.470;2023-05-07T07:01:13;12.00;77.50
2441;DHT22;1231;53.988;9.470;2023-05-07T07:04:04;12.00;77.30
2441;DHT22;1231;53.988;9.470;2023-05-07T07:06:56;12.10;76.90
2441;DHT22;1231;53.988;9.470;2023-05-07T07:09:47;12.20;76.70
2441;DHT22;1231;53.988;9.470;2023-05-07T07:12:38;12.20;76.20
2441;DHT22;1231;53.988;9.470;2023-05-07T07:15:29;12.30;76.10
2441;DHT22;1231;53.988;9.470;2023-05-07T07:18:20;12.40;75.90
2441;DHT22;1231;53.988;9.470;2023-05-07T07:21:11;12.40;75.20
2441;DHT22;1231;53.988;9.470;2023-05-07T07:24:03;12.50;75.40
2441;DHT22;1231;53.988;9.470;2023-05-07T07:26:53;12.60;75.10
2441;DHT22;1231;53.988;9.470;2023-05-07T07:29:46;12.80;74.80
2441;DHT22;1231;53.988;9.470;2023-05-07T07:32:37;13.00;74.60
2441;DHT22;1231;53.988;9.470;2023-05-07T07:35:29;13.30;73.70
2441;DHT22;1231;53.988;9.470;2023-05-07T07:38:20;13.50;73.50
2441;DHT22;1231;53.988;9.470;2023-05-07T07:41:10;13.60;72.90
2441;DHT22;1231;53.988;9.470;2023-05-07T07:44:03;13.70;72.40
2441;DHT22;1231;53.988;9.470;2023-05-07T07:46:54;13.80;72.10
2441;DHT22;1231;53.988;9.470;2023-05-07T07:49:52;13.80;71.80
2441;DHT22;1231;53.988;9.470;2023-05-07T07:52:43;13.90;71.80
2441;DHT22;1231;53.988;9.470;2023-05-07T07:55:38;13.80;70.70
2441;DHT22;1231;53.988;9.470;2023-05-07T07:58:30;13.70;70.50
2441;DHT22;1231;53.988;9.470;2023-05-07T08:01:21;13.70;70.40
2441;DHT22;1231;53.988;9.470;2023-05-07T08:04:12;13.70;70.50
2441;DHT22;1231;53.988;9.470;2023-05-07T08:07:03;13.80;70.70
2441;DHT22;1231;53.988;9.470;2023-05-07T08:09:54;14.00;70.80
2441;DHT22;1231;53.988;9.470;2023-05-07T08:12:45;14.10;70.00
2441;DHT22;1231;53.988;9.470;2023-05-07T08:15:36;14.30;69.30
2441;DHT22;1231;53.988;9.470;2023-05-07T08:18:27;14.10;68.60
2441;DHT22;1231;53.988;9.470;2023-05-07T08:21:19;14.00;69.10
2441;DHT22;1231;53.988;9.470;2023-05-07T08:24:10;14.10;69.40
2441;DHT22;1231;53.988;9.470;2023-05-07T08:27:02;14.10;69.00
2441;DHT22;1231;53.988;9.470;2023-05-07T08:29:53;14.20;69.40
2441;DHT22;1231;53.988;9.470;2023-05-07T08:32:44;14.30;69.40
2441;DHT22;1231;53.988;9.470;2023-05-07T08:35:35;14.40;69.30
2441;DHT22;1231;53.988;9.470;2023-05-07T08:38:26;14.50;69.20
2441;DHT22;1231;53.988;9.470;2023-05-07T08:41:17;14.70;68.90
2441;DHT22;1231;53.988;9.470;2023-05-07T08:44:12;15.00;68.90
2441;DHT22;1231;53.988;9.470;2023-05-07T08:47:07;15.40;67.90
2441;DHT22;1231;53.988;9.470;2023-05-07T08:49:58;15.70;66.90
2441;DHT22;1231;53.988;9.470;2023-05-07T08:52:49;16.00;66.30
2441;DHT22;1231;53.988;9.470;2023-05-07T08:55:40;16.10;66.10
2441;DHT22;1231;53.988;9.470;2023-05-07T08:58:31;16.20;65.70
2441;DHT22;1231;53.988;9.470;2023-05-07T09:01:28;16.20;65.40
2441;DHT22;1231;53.988;9.470;2023-05-07T09:04:20;16.10;65.20
2441;DHT22;1231;53.988;9.470;2023-05-07T09:07:10;16.00;64.50
2441;DHT22;1231;53.988;9.470;2023-05-07T09:10:03;16.10;65.70
2441;DHT22;1231;53.988;9.470;2023-05-07T09:12:55;16.30;65.10
2441;DHT22;1231;53.988;9.470;2023-05-07T09:15:46;16.30;64.70
2441;DHT22;1231;53.988;9.470;2023-05-07T09:18:43;16.30;64.40
2441;DHT22;1231;53.988;9.470;2023-05-07T09:21:35;16.30;64.60
2441;DHT22;1231;53.988;9.470;2023-05-07T09:24:26;16.20;64.90
2441;DHT22;1231;53.988;9.470;2023-05-07T09:27:20;16.10;64.80
2441;DHT22;1231;53.988;9.470;2023-05-07T09:30:11;16.00;65.10
2441;DHT22;1231;53.988;9.470;2023-05-07T09:33:03;15.90;64.80
2441;DHT22;1231;53.988;9.470;2023-05-07T09:35:54;15.90;64.90
2441;DHT22;1231;53.988;9.470;2023-05-07T09:38:45;16.00;64.90
2441;DHT22;1231;53.988;9.470;2023-05-07T09:41:44;16.10;65.10
2441;DHT22;1231;53.988;9.470;2023-05-07T09:44:36;16.20;65.10
2441;DHT22;1231;53.988;9.470;2023-05-07T09:47:29;16.30;65.20
2441;DHT22;1231;53.988;9.470;2023-05-07T09:50:48;16.20;65.00
2441;DHT22;1231;53.988;9.470;2023-05-07T09:53:41;16.20;65.30
2441;DHT22;1231;53.988;9.470;2023-05-07T09:56:33;16.20;65.30
2441;DHT22;1231;53.988;9.470;2023-05-07T09:59:25;16.40;65.40
2441;DHT22;1231;53.988;9.470;2023-05-07T10:02:18;16.40;64.90
2441;DHT22;1231;53.988;9.470;2023-05-07T10:05:09;16.50;64.70
2441;DHT22;1231;53.988;9.470;2023-05-07T10:08:01;16.50;64.60
2441;DHT22;1231;53.988;9.470;2023-05-07T10:10:52;16.80;64.70
2441;DHT22;1231;53.988;9.470;2023-05-07T10:13:43;16.90;64.10
2441;DHT22;1231;53.988;9.470;2023-05-07T10:16:36;17.10;64.30
2441;DHT22;1231;53.988;9.470;2023-05-07T10:19:28;17.40;64.30
2441;DHT22;1231;53.988;9.470;2023-05-07T10:22:20;17.60;62.70
2441;DHT22;1231;53.988;9.470;2023-05-07T10:28:07;17.50;62.50
2441;DHT22;1231;53.988;9.470;2023-05-07T10:31:29;17.60;62.30
2441;DHT22;1231;53.988;9.470;2023-05-07T10:34:37;17.70;61.60
2441;DHT22;1231;53.988;9.470;2023-05-07T10:37:29;17.80;62.00
2441;DHT22;1231;53.988;9.470;2023-05-07T10:40:21;17.90;61.10
2441;DHT22;1231;53.988;9.470;2023-05-07T10:43:12;17.80;60.90
2441;DHT22;1231;53.988;9.470;2023-05-07T10:46:16;17.70;61.50
2441;DHT22;1231;53.988;9.470;2023-05-07T10:49:07;17.70;61.20
2441;DHT22;1231;53.988;9.470;2023-05-07T10:52:15;17.50;61.40
2441;DHT22;1231;53.988;9.470;2023-05-07T10:58:27;17.40;62.10
2441;DHT22;1231;53.988;9.470;2023-05-07T11:01:54;17.60;62.50
2441;DHT22;1231;53.988;9.470;2023-05-07T11:05:19;17.70;61.70
2441;DHT22;1231;53.988;9.470;2023-05-07T11:08:10;17.90;61.10
2441;DHT22;1231;53.988;9.470;2023-05-07T11:11:01;18.00;61.00
2441;DHT22;1231;53.988;9.470;2023-05-07T11:13:52;17.90;62.00
2441;DHT22;1231;53.988;9.470;2023-05-07T11:16:43;18.00;62.30
2441;DHT22;1231;53.988;9.470;2023-05-07T11:19:50;17.90;60.80
2441;DHT22;1231;53.988;9.470;2023-05-07T11:22:41;18.00;60.80
2441;DHT22;1231;53.988;9.470;2023-05-07T11:25:32;18.30;61.50
2441;DHT22;1231;53.988;9.470;2023-05-07T11:28:23;18.50;61.40
2441;DHT22;1231;53.988;9.470;2023-05-07T11:31:21;18.70;60.30
2441;DHT22;1231;53.988;9.470;2023-05-07T11:34:12;19.00;60.20
2441;DHT22;1231;53.988;9.470;2023-05-07T11:37:04;19.10;59.20
2441;DHT22;1231;53.988;9.470;2023-05-07T11:40:08;19.20;59.80
2441;DHT22;1231;53.988;9.470;2023-05-07T11:43:10;18.90;58.00
2441;DHT22;1231;53.988;9.470;2023-05-07T11:46:08;18.70;59.10
2441;DHT22;1231;53.988;9.470;2023-05-07T11:49:00;18.60;59.70
2441;DHT22;1231;53.988;9.470;2023-05-07T11:51:51;18.50;59.10
2441;DHT22;1231;53.988;9.470;2023-05-07T11:54:52;18.50;59.50
2441;DHT22;1231;53.988;9.470;2023-05-07T11:57:44;18.40;59.80
2441;DHT22;1231;53.988;9.470;2023-05-07T12:00:35;18.40;60.50
2441;DHT22;1231;53.988;9.470;2023-05-07T12:03:26;18.30;60.20
2441;DHT22;1231;53.988;9.470;2023-05-07T12:06:18;18.40;60.50
2441;DHT22;1231;53.988;9.470;2023-05-07T12:09:09;18.50;60.50
2441;DHT22;1231;53.988;9.470;2023-05-07T12:12:05;18.70;60.20
2441;DHT22;1231;53.988;9.470;2023-05-07T12:14:56;18.70;59.80
2441;DHT22;1231;53.988;9.470;2023-05-07T12:17:47;18.80;60.00
2441;DHT22;1231;53.988;9.470;2023-05-07T12:20:39;18.90;58.70
2441;DHT22;1231;53.988;9.470;2023-05-07T12:23:31;19.10;59.70
2441;DHT22;1231;53.988;9.470;2023-05-07T12:26:28;19.30;58.50
2441;DHT22;1231;53.988;9.470;2023-05-07T12:29:21;19.30;57.00
2441;DHT22;1231;53.988;9.470;2023-05-07T12:32:17;19.30;56.70
2441;DHT22;1231;53.988;9.470;2023-05-07T12:35:09;19.20;57.40
2441;DHT22;1231;53.988;9.470;2023-05-07T12:38:00;19.30;58.00
2441;DHT22;1231;53.988;9.470;2023-05-07T12:40:54;19.30;57.60
2441;DHT22;1231;53.988;9.470;2023-05-07T12:43:46;19.30;58.20
2441;DHT22;1231;53.988;9.470;2023-05-07T12:46:38;19.30;58.30
2441;DHT22;1231;53.988;9.470;2023-05-07T12:49:30;19.30;57.90
2441;DHT22;1231;53.988;9.470;2023-05-07T12:52:21;19.20;58.40
2441;DHT22;1231;53.988;9.470;2023-05-07T12:55:14;19.30;59.50
2441;DHT22;1231;53.988;9.470;2023-05-07T12:58:05;19.30;59.20
2441;DHT22;1231;53.988;9.470;2023-05-07T13:01:03;19.30;58.80
2441;DHT22;1231;53.988;9.470;2023-05-07T13:03:55;19.20;59.00
2441;DHT22;1231;53.988;9.470;2023-05-07T13:06:46;19.00;57.60
2441;DHT22;1231;53.988;9.470;2023-05-07T13:09:37;18.90;57.80
2441;DHT22;1231;53.988;9.470;2023-05-07T13:12:28;18.90;58.40
2441;DHT22;1231;53.988;9.470;2023-05-07T13:15:19;18.80;58.80
2441;DHT22;1231;53.988;9.470;2023-05-07T13:18:10;18.90;59.50
2441;DHT22;1231;53.988;9.470;2023-05-07T13:21:02;18.80;58.70
2441;DHT22;1231;53.988;9.470;2023-05-07T13:23:52;18.80;58.10
2441;DHT22;1231;53.988;9.470;2023-05-07T13:26:44;18.80;58.70
2441;DHT22;1231;53.988;9.470;2023-05-07T13:29:34;18.80;58.80
2441;DHT22;1231;53.988;9.470;2023-05-07T13:32:26;18.80;58.50
2441;DHT22;1231;53.988;9.470;2023-05-07T13:35:23;18.90;58.50
2441;DHT22;1231;53.988;9.470;2023-05-07T13:38:14;18.80;56.70
2441;DHT22;1231;53.988;9.470;2023-05-07T13:41:06;18.70;57.70
2441;DHT22;1231;53.988;9.470;2023-05-07T13:43:57;18.80;58.60
2441;DHT22;1231;53.988;9.470;2023-05-07T13:46:48;18.90;59.10
2441;DHT22;1231;53.988;9.470;2023-05-07T13:49:39;19.00;59.10
2441;DHT22;1231;53.988;9.470;2023-05-07T13:52:30;19.00;58.20
2441;DHT22;1231;53.988;9.470;2023-05-07T13:55:21;19.00;58.50
2441;DHT22;1231;53.988;9.470;2023-05-07T13:58:13;19.10;58.70
2441;DHT22;1231;53.988;9.470;2023-05-07T14:01:04;19.20;59.10
2441;DHT22;1231;53.988;9.470;2023-05-07T14:03:56;19.30;59.00
2441;DHT22;1231;53.988;9.470;2023-05-07T14:06:51;19.40;58.70
2441;DHT22;1231;53.988;9.470;2023-05-07T14:09:43;19.40;58.20
2441;DHT22;1231;53.988;9.470;2023-05-07T14:12:36;19.50;58.20
2441;DHT22;1231;53.988;9.470;2023-05-07T14:15:29;19.40;57.00
2441;DHT22;1231;53.988;9.470;2023-05-07T14:18:22;19.30;57.60
2441;DHT22;1231;53.988;9.470;2023-05-07T14:21:13;19.40;58.10
2441;DHT22;1231;53.988;9.470;2023-05-07T14:24:07;19.40;57.10
2441;DHT22;1231;53.988;9.470;2023-05-07T14:26:58;19.40;57.10
2441;DHT22;1231;53.988;9.470;2023-05-07T14:29:49;19.40;57.10
2441;DHT22;1231;53.988;9.470;2023-05-07T14:32:45;19.20;57.10
2441;DHT22;1231;53.988;9.470;2023-05-07T14:35:36;19.10;57.10
2441;DHT22;1231;53.988;9.470;2023-05-07T14:38:27;18.90;57.00
2441;DHT22;1231;53.988;9.470;2023-05-07T14:41:17;18.80;56.10
2441;DHT22;1231;53.988;9.470;2023-05-07T14:44:08;18.60;57.30
2441;DHT22;1231;53.988;9.470;2023-05-07T14:46:59;18.50;57.20
2441;DHT22;1231;53.988;9.470;2023-05-07T14:49:50;18.60;58.30
2441;DHT22;1231;53.988;9.470;2023-05-07T14:52:42;18.70;57.80
2441;DHT22;1231;53.988;9.470;2023-05-07T14:55:34;18.80;58.50
2441;DHT22;1231;53.988;9.470;2023-05-07T14:58:25;18.90;58.70
2441;DHT22;1231;53.988;9.470;2023-05-07T15:01:16;19.00;58.50
2441;DHT22;1231;53.988;9.470;2023-05-07T15:04:14;19.10;58.10
2441;DHT22;1231;53.988;9.470;2023-05-07T15:07:05;19.30;58.20
2441;DHT22;1231;53.988;9.470;2023-05-07T15:09:56;19.40;58.00
2441;DHT22;1231;53.988;9.470;2023-05-07T15:12:47;19.30;56.00
2441;DHT22;1231;53.988;9.470;2023-05-07T15:15:41;19.30;56.80
2441;DHT22;1231;53.988;9.470;2023-05-07T15:18:33;19.40;56.70
2441;DHT22;1231;53.988;9.470;2023-05-07T15:21:24;19.30;56.00
2441;DHT22;1231;53.988;9.470;2023-05-07T15:24:16;19.30;55.90
2441;DHT22;1231;53.988;9.470;2023-05-07T15:27:07;19.30;56.20
2441;DHT22;1231;53.988;9.470;2023-05-07T15:29:58;19.40;56.20
2441;DHT22;1231;53.988;9.470;2023-05-07T15:32:49;19.40;56.10
2441;DHT22;1231;53.988;9.470;2023-05-07T15:35:41;19.50;55.40
2441;DHT22;1231;53.988;9.470;2023-05-07T15:38:32;19.50;55.20
2441;DHT22;1231;53.988;9.470;2023-05-07T15:41:23;19.70;55.20
2441;DHT22;1231;53.988;9.470;2023-05-07T15:44:14;19.80;54.80
2441;DHT22;1231;53.988;9.470;2023-05-07T15:47:04;19.90;54.40
2441;DHT22;1231;53.988;9.470;2023-05-07T15:49:55;20.00;54.00
2441;DHT22;1231;53.988;9.470;2023-05-07T15:52:48;20.10;54.20
2441;DHT22;1231;53.988;9.470;2023-05-07T15:55:40;20.00;53.70
2441;DHT22;1231;53.988;9.470;2023-05-07T15:58:35;19.80;53.70
2441;DHT22;1231;53.988;9.470;2023-05-07T16:01:27;19.80;54.60
2441;DHT22;1231;53.988;9.470;2023-05-07T16:04:18;19.70;54.30
2441;DHT22;1231;53.988;9.470;2023-05-07T16:07:09;19.70;54.80
2441;DHT22;1231;53.988;9.470;2023-05-07T16:10:01;19.70;54.50
2441;DHT22;1231;53.988;9.470;2023-05-07T16:12:54;19.80;54.70
2441;DHT22;1231;53.988;9.470;2023-05-07T16:15:47;19.90;54.80
2441;DHT22;1231;53.988;9.470;2023-05-07T16:18:38;19.90;54.40
2441;DHT22;1231;53.988;9.470;2023-05-07T16:21:29;19.90;55.20
2441;DHT22;1231;53.988;9.470;2023-05-07T16:24:20;20.00;55.10
2441;DHT22;1231;53.988;9.470;2023-05-07T16:27:11;20.00;55.30
2441;DHT22;1231;53.988;9.470;2023-05-07T16:30:02;19.90;53.40
2441;DHT22;1231;53.988;9.470;2023-05-07T16:32:53;19.80;54.30
2441;DHT22;1231;53.988;9.470;2023-05-07T16:35:53;19.80;54.60
2441;DHT22;1231;53.988;9.470;2023-05-07T16:38:44;19.70;55.20
2441;DHT22;1231;53.988;9.470;2023-05-07T16:41:35;19.60;55.00
2441;DHT22;1231;53.988;9.470;2023-05-07T16:44:26;19.60;55.70
2441;DHT22;1231;53.988;9.470;2023-05-07T16:47:17;19.50;55.90
2441;DHT22;1231;53.988;9.470;2023-05-07T16:50:08;19.50;55.70
2441;DHT22;1231;53.988;9.470;2023-05-07T16:52:59;19.40;55.80
2441;DHT22;1231;53.988;9.470;2023-05-07T16:55:50;19.30;55.90
2441;DHT22;1231;53.988;9.470;2023-05-07T16:58:41;19.30;56.30
2441;DHT22;1231;53.988;9.470;2023-05-07T17:01:32;19.30;56.40
2441;DHT22;1231;53.988;9.470;2023-05-07T17:04:23;19.20;56.50
2441;DHT22;1231;53.988;9.470;2023-05-07T17:07:14;19.10;56.20
2441;DHT22;1231;53.988;9.470;2023-05-07T17:10:06;19.00;56.20
2441;DHT22;1231;53.988;9.470;2023-05-07T17:12:57;18.90;56.60
2441;DHT22;1231;53.988;9.470;2023-05-07T17:15:48;18.90;57.00
2441;DHT22;1231;53.988;9.470;2023-05-07T17:18:39;18.70;56.80
2441;DHT22;1231;53.988;9.470;2023-05-07T17:21:30;18.60;57.20
2441;DHT22;1231;53.988;9.470;2023-05-07T17:24:21;18.60;57.10
2441;DHT22;1231;53.988;9.470;2023-05-07T17:27:12;18.50;57.00
2441;DHT22;1231;53.988;9.470;2023-05-07T17:30:03;18.40;57.10
2441;DHT22;1231;53.988;9.470;2023-05-07T17:32:54;18.30;57.60
2441;DHT22;1231;53.988;9.470;2023-05-07T17:35:46;18.30;57.90
2441;DHT22;1231;53.988;9.470;2023-05-07T17:38:37;18.10;58.50
2441;DHT22;1231;53.988;9.470;2023-05-07T17:41:28;18.00;58.90
2441;DHT22;1231;53.988;9.470;2023-05-07T17:44:19;17.90;59.30
2441;DHT22;1231;53.988;9.470;2023-05-07T17:47:10;17.80;59.50
2441;DHT22;1231;53.988;9.470;2023-05-07T17:50:04;17.70;59.90
2441;DHT22;1231;53.988;9.470;2023-05-07T17:52:59;17.60;60.90
2441;DHT22;1231;53.988;9.470;2023-05-07T17:55:51;17.40;60.70
2441;DHT22;1231;53.988;9.470;2023-05-07T17:58:42;17.30;60.30
2441;DHT22;1231;53.988;9.470;2023-05-07T18:01:33;17.10;60.40
2441;DHT22;1231;53.988;9.470;2023-05-07T18:04:24;17.00;60.40
2441;DHT22;1231;53.988;9.470;2023-05-07T18:07:16;16.90;60.50
2441;DHT22;1231;53.988;9.470;2023-05-07T18:10:07;16.80;60.70
2441;DHT22;1231;53.988;9.470;2023-05-07T18:12:58;16.70;60.70
2441;DHT22;1231;53.988;9.470;2023-05-07T18:15:50;16.60;61.10
2441;DHT22;1231;53.988;9.470;2023-05-07T18:18:41;16.60;61.30
2441;DHT22;1231;53.988;9.470;2023-05-07T18:21:31;16.50;61.90
2441;DHT22;1231;53.988;9.470;2023-05-07T18:24:22;16.40;61.80
2441;DHT22;1231;53.988;9.470;2023-05-07T18:27:13;16.30;62.20
2441;DHT22;1231;53.988;9.470;2023-05-07T18:30:05;16.20;62.30
2441;DHT22;1231;53.988;9.470;2023-05-07T18:32:56;16.10;62.60
2441;DHT22;1231;53.988;9.470;2023-05-07T18:35:47;16.10;62.70
2441;DHT22;1231;53.988;9.470;2023-05-07T18:38:38;16.00;63.00
2441;DHT22;1231;53.988;9.470;2023-05-07T18:41:28;15.90;63.40
2441;DHT22;1231;53.988;9.470;2023-05-07T18:44:19;15.80;63.90
2441;DHT22;1231;53.988;9.470;2023-05-07T18:47:10;15.70;64.10
2441;DHT22;1231;53.988;9.470;2023-05-07T18:50:03;15.60;64.30